createdAt,value
2023-03-25T00:00:20.449Z,6.6
2023-03-25T00:01:28.780Z,6.6
2023-03-25T00:02:37.437Z,7.9
2023-03-25T00:03:45.668Z,7.9
2023-03-25T00:04:54.043Z,7.9
2023-03-25T00:06:02.590Z,6.7
2023-03-25T00:07:11.017Z,6.7
2023-03-25T00:08:19.321Z,6.7
2023-03-25T00:09:27.881Z,5.7
2023-03-25T00:10:36.321Z,5.7
2023-03-25T00:11:44.591Z,5.7
2023-03-25T00:12:53.115Z,7.8
2023-03-25T00:14:01.434Z,7.8
2023-03-25T00:15:09.788Z,7.8
2023-03-25T00:16:18.374Z,5.7
2023-03-25T00:17:26.707Z,5.7
2023-03-25T00:18:35.036Z,5.7
2023-03-25T00:19:43.561Z,7.5
2023-03-25T00:20:52.049Z,7.5
2023-03-25T00:22:00.258Z,7.5
2023-03-25T00:23:08.815Z,5.1
2023-03-25T00:24:17.155Z,5.1
2023-03-25T00:25:25.506Z,5.1
2023-03-25T00:26:34.089Z,4.8
2023-03-25T00:27:42.358Z,4.8
2023-03-25T00:28:50.705Z,4.8
2023-03-25T00:29:59.281Z,4.7
2023-03-25T00:31:07.628Z,4.7
2023-03-25T00:32:15.941Z,4.7
2023-03-25T00:33:24.452Z,4.6
2023-03-25T00:34:32.853Z,4.6
2023-03-25T00:35:41.239Z,4.6
2023-03-25T00:36:49.751Z,3.8
2023-03-25T00:37:58.137Z,3.8
2023-03-25T00:39:06.466Z,3.8
2023-03-25T00:40:15.049Z,4.8
2023-03-25T00:41:23.585Z,4.8
2023-03-25T00:42:31.750Z,4.8
2023-03-25T00:43:40.265Z,4.3
2023-03-25T00:44:48.641Z,4.3
2023-03-25T00:45:56.995Z,4.3
2023-03-25T00:47:05.517Z,3.1
2023-03-25T00:48:13.838Z,3.1
2023-03-25T00:49:22.188Z,3.1
2023-03-25T00:50:30.730Z,3.4
2023-03-25T00:51:52.203Z,3.4
2023-03-25T00:52:47.403Z,3.4
2023-03-25T00:53:55.955Z,4.1
2023-03-25T00:55:04.268Z,4.1
2023-03-25T00:56:12.596Z,4.1
2023-03-25T00:57:21.147Z,2.9
2023-03-25T00:58:29.502Z,2.9
2023-03-25T00:59:37.834Z,2.9
2023-03-25T01:00:46.376Z,3.1
2023-03-25T01:01:54.720Z,3.1
2023-03-25T01:03:03.105Z,3.1
2023-03-25T01:04:11.594Z,3.2
2023-03-25T01:05:19.959Z,3.2
2023-03-25T01:06:28.292Z,3.2
2023-03-25T01:07:36.847Z,4.5
2023-03-25T01:08:45.194Z,4.5
2023-03-25T01:09:53.544Z,4.5
2023-03-25T01:11:02.052Z,2.6
2023-03-25T01:12:10.413Z,2.6
2023-03-25T01:13:18.750Z,2.6
2023-03-25T01:14:27.327Z,3.9
2023-03-25T01:15:35.666Z,3.9
2023-03-25T01:16:43.996Z,3.9
2023-03-25T01:17:52.556Z,3.2
2023-03-25T01:19:00.874Z,3.2
2023-03-25T01:20:09.237Z,3.2
2023-03-25T01:21:17.795Z,4.9
2023-03-25T01:22:26.147Z,4.9
2023-03-25T01:23:34.460Z,4.9
2023-03-25T01:24:43.016Z,2.9
2023-03-25T01:25:51.463Z,2.9
2023-03-25T01:26:59.691Z,2.9
2023-03-25T01:28:08.230Z,3
2023-03-25T01:29:16.575Z,3
2023-03-25T01:30:25.004Z,3
2023-03-25T01:31:33.621Z,3.5
2023-03-25T01:32:41.885Z,3.5
2023-03-25T01:33:50.209Z,3.5
2023-03-25T01:34:58.760Z,3
2023-03-25T01:36:07.116Z,3
2023-03-25T01:37:15.426Z,3
2023-03-25T01:38:24.014Z,3.7
2023-03-25T01:39:32.334Z,3.7
2023-03-25T01:40:40.671Z,3.7
2023-03-25T01:41:50.449Z,4
2023-03-25T01:42:57.557Z,4
2023-03-25T01:44:05.864Z,4
2023-03-25T01:45:14.442Z,3
2023-03-25T01:46:22.806Z,3
2023-03-25T01:47:31.112Z,3
2023-03-25T01:48:39.629Z,3.3
2023-03-25T01:49:47.972Z,3.3
2023-03-25T01:50:56.302Z,3.3
2023-03-25T01:52:04.840Z,4.2
2023-03-25T01:53:13.179Z,4.2
2023-03-25T01:54:21.553Z,4.2
2023-03-25T01:55:30.082Z,3.2
2023-03-25T01:56:38.448Z,3.2
2023-03-25T01:57:46.736Z,3.2
2023-03-25T01:58:55.258Z,3.2
2023-03-25T02:00:03.603Z,3.2
2023-03-25T02:01:11.987Z,3.2
2023-03-25T02:02:20.582Z,4.3
2023-03-25T02:03:28.874Z,4.3
2023-03-25T02:04:37.172Z,4.3
2023-03-25T02:05:45.733Z,3.3
2023-03-25T02:06:54.096Z,3.3
2023-03-25T02:08:02.430Z,3.3
2023-03-25T02:09:10.985Z,3.3
2023-03-25T02:10:19.359Z,3.3
2023-03-25T02:11:27.697Z,3.3
2023-03-25T02:12:36.256Z,4
2023-03-25T02:13:44.570Z,4
2023-03-25T02:14:52.933Z,4
2023-03-25T02:16:01.479Z,3.4
2023-03-25T02:17:09.789Z,3.4
2023-03-25T02:18:18.170Z,3.4
2023-03-25T02:19:26.715Z,4.1
2023-03-25T02:20:35.031Z,4.1
2023-03-25T02:21:43.380Z,4.1
2023-03-25T02:22:51.922Z,3.3
2023-03-25T02:24:00.244Z,3.3
2023-03-25T02:25:08.575Z,3.3
2023-03-25T02:26:17.125Z,4.1
2023-03-25T02:27:25.463Z,4.1
2023-03-25T02:28:33.784Z,4.1
2023-03-25T02:29:42.317Z,3.6
2023-03-25T02:30:50.667Z,3.6
2023-03-25T02:31:59.035Z,3.6
2023-03-25T02:33:07.545Z,2.2
2023-03-25T02:34:15.898Z,2.2
2023-03-25T02:35:24.226Z,2.2
2023-03-25T02:36:32.750Z,2
2023-03-25T02:37:41.086Z,2
2023-03-25T02:38:49.403Z,2
2023-03-25T02:39:57.974Z,1.7
2023-03-25T02:41:06.289Z,1.7
2023-03-25T02:42:14.623Z,1.7
2023-03-25T02:43:23.154Z,2.9
2023-03-25T02:44:31.485Z,2.9
2023-03-25T02:45:39.864Z,2.9
2023-03-25T02:46:48.383Z,2.8
2023-03-25T02:47:56.740Z,2.8
2023-03-25T02:49:05.047Z,2.8
2023-03-25T02:50:13.731Z,1.9
2023-03-25T02:51:21.943Z,1.9
2023-03-25T02:52:30.269Z,1.9
2023-03-25T02:53:38.802Z,2.2
2023-03-25T02:54:47.135Z,2.2
2023-03-25T02:55:55.459Z,2.2
2023-03-25T02:57:04.143Z,4.1
2023-03-25T02:58:12.351Z,4.1
2023-03-25T02:59:20.684Z,4.1
2023-03-25T03:00:29.220Z,3.7
2023-03-25T03:01:37.585Z,3.7
2023-03-25T03:02:45.894Z,3.7
2023-03-25T03:03:54.397Z,2.4
2023-03-25T03:05:02.741Z,2.4
2023-03-25T03:06:11.122Z,2.4
2023-03-25T03:07:19.655Z,4
2023-03-25T03:08:27.976Z,4
2023-03-25T03:09:36.310Z,4
2023-03-25T03:10:44.848Z,2.8
2023-03-25T03:11:53.192Z,2.8
2023-03-25T03:13:01.511Z,2.8
2023-03-25T03:14:10.053Z,3.3
2023-03-25T03:15:18.427Z,3.3
2023-03-25T03:16:26.782Z,3.3
2023-03-25T03:17:35.377Z,2.1
2023-03-25T03:18:43.684Z,2.1
2023-03-25T03:19:52.016Z,2.1
2023-03-25T03:21:00.586Z,1
2023-03-25T03:22:09.504Z,1
2023-03-25T03:23:17.248Z,1
2023-03-25T03:24:25.821Z,1.4
2023-03-25T03:25:34.151Z,1.4
2023-03-25T03:26:42.456Z,1.4
2023-03-25T03:27:51.007Z,1.8
2023-03-25T03:28:59.349Z,1.8
2023-03-25T03:30:07.692Z,1.8
2023-03-25T03:31:47.829Z,1.7
2023-03-25T03:32:24.592Z,1.7
2023-03-25T03:33:32.887Z,1.7
2023-03-25T03:34:41.472Z,0.5
2023-03-25T03:35:50.276Z,0.5
2023-03-25T03:36:58.118Z,0.5
2023-03-25T03:38:06.671Z,1.6
2023-03-25T03:39:14.992Z,1.6
2023-03-25T03:40:23.336Z,1.6
2023-03-25T03:41:31.893Z,0.9
2023-03-25T03:42:40.227Z,0.9
2023-03-25T03:43:48.538Z,0.9
2023-03-25T03:44:57.066Z,1.4
2023-03-25T03:46:05.417Z,1.4
2023-03-25T03:47:13.732Z,1.4
2023-03-25T03:48:22.277Z,1.5
2023-03-25T03:49:30.613Z,1.5
2023-03-25T03:50:38.949Z,1.5
2023-03-25T03:51:47.458Z,0.9
2023-03-25T03:52:55.778Z,0.9
2023-03-25T03:54:04.148Z,0.9
2023-03-25T03:55:12.664Z,1.1
2023-03-25T03:56:20.992Z,1.1
2023-03-25T03:57:29.325Z,1.1
2023-03-25T03:58:37.855Z,2.3
2023-03-25T03:59:46.175Z,2.3
2023-03-25T04:00:54.510Z,2.3
2023-03-25T04:02:03.077Z,2.3
2023-03-25T04:03:11.437Z,2.3
2023-03-25T04:04:19.729Z,2.3
2023-03-25T04:05:28.297Z,2.2
2023-03-25T04:06:36.591Z,2.2
2023-03-25T04:07:44.942Z,2.2
2023-03-25T04:08:53.470Z,2.1
2023-03-25T04:10:01.839Z,2.1
2023-03-25T04:11:10.186Z,2.1
2023-03-25T04:12:18.687Z,2.9
2023-03-25T04:13:27.030Z,2.9
2023-03-25T04:14:35.383Z,2.9
2023-03-25T04:15:43.924Z,1.3
2023-03-25T04:16:52.257Z,1.3
2023-03-25T04:18:00.585Z,1.3
2023-03-25T04:19:09.106Z,2.8
2023-03-25T04:20:17.423Z,2.8
2023-03-25T04:21:25.740Z,2.8
2023-03-25T04:22:34.257Z,1.9
2023-03-25T04:23:42.599Z,1.9
2023-03-25T04:24:50.915Z,1.9
2023-03-25T04:25:59.487Z,3.5
2023-03-25T04:27:07.784Z,3.5
2023-03-25T04:28:16.115Z,3.5
2023-03-25T04:29:24.659Z,2.1
2023-03-25T04:30:32.985Z,2.1
2023-03-25T04:31:41.334Z,2.1
2023-03-25T04:32:49.892Z,3.1
2023-03-25T04:33:58.152Z,3.1
2023-03-25T04:35:06.479Z,3.1
2023-03-25T04:36:15.110Z,6.6
2023-03-25T04:37:23.342Z,6.6
2023-03-25T04:38:31.649Z,6.6
2023-03-25T04:39:40.178Z,3.1
2023-03-25T04:40:48.501Z,3.1
2023-03-25T04:41:56.814Z,3.1
2023-03-25T04:43:05.303Z,1.8
2023-03-25T04:44:13.610Z,1.8
2023-03-25T04:45:21.933Z,1.8
2023-03-25T04:46:30.452Z,3.3
2023-03-25T04:47:38.784Z,3.3
2023-03-25T04:48:47.090Z,3.3
2023-03-25T04:49:55.608Z,3.4
2023-03-25T04:51:03.946Z,3.4
2023-03-25T04:52:12.252Z,3.4
2023-03-25T04:53:20.779Z,3.1
2023-03-25T04:54:29.122Z,3.1
2023-03-25T04:55:37.465Z,3.1
2023-03-25T04:56:46.013Z,2.1
2023-03-25T04:57:54.363Z,2.1
2023-03-25T04:59:02.627Z,2.1
2023-03-25T05:00:11.161Z,2.3
2023-03-25T05:01:19.537Z,2.3
2023-03-25T05:02:27.873Z,2.3
2023-03-25T05:03:36.360Z,3.6
2023-03-25T05:04:44.719Z,3.6
2023-03-25T05:05:53.228Z,3.6
2023-03-25T05:07:01.586Z,2.8
2023-03-25T05:08:09.921Z,2.8
2023-03-25T05:09:18.252Z,2.8
2023-03-25T05:10:26.780Z,2.7
2023-03-25T05:11:35.112Z,2.7
2023-03-25T05:12:43.436Z,2.7
2023-03-25T05:13:51.974Z,4.3
2023-03-25T05:15:00.280Z,4.3
2023-03-25T05:16:08.628Z,4.3
2023-03-25T05:17:17.144Z,4.8
2023-03-25T05:18:25.477Z,4.8
2023-03-25T05:19:33.827Z,4.8
2023-03-25T05:20:42.371Z,2.2
2023-03-25T05:21:50.699Z,2.2
2023-03-25T05:22:59.035Z,2.2
2023-03-25T05:24:07.589Z,3.4
2023-03-25T05:25:15.927Z,3.4
2023-03-25T05:26:24.226Z,3.4
2023-03-25T05:27:32.762Z,4.5
2023-03-25T05:28:41.092Z,4.5
2023-03-25T05:29:49.438Z,4.5
2023-03-25T05:30:57.952Z,3.6
2023-03-25T05:32:06.362Z,3.6
2023-03-25T05:33:14.620Z,3.6
2023-03-25T05:34:23.177Z,3.6
2023-03-25T05:35:31.531Z,3.6
2023-03-25T05:36:39.842Z,3.6
2023-03-25T05:37:48.400Z,2.5
2023-03-25T05:38:56.737Z,2.5
2023-03-25T05:40:14.817Z,2.5
2023-03-25T05:41:13.616Z,3.5
2023-03-25T05:42:21.946Z,3.5
2023-03-25T05:43:30.261Z,3.5
2023-03-25T05:44:38.891Z,2.8
2023-03-25T05:45:47.243Z,2.8
2023-03-25T05:46:56.126Z,2.8
2023-03-25T05:48:04.127Z,1.3
2023-03-25T05:49:12.422Z,1.3
2023-03-25T05:50:20.758Z,1.3
2023-03-25T05:51:29.292Z,3
2023-03-25T05:52:37.603Z,3
2023-03-25T05:53:45.938Z,3
2023-03-25T05:54:54.480Z,2
2023-03-25T05:56:02.772Z,2
2023-03-25T05:57:11.101Z,2
2023-03-25T05:58:19.635Z,2
2023-03-25T05:59:27.911Z,2
2023-03-25T06:00:37.309Z,2
2023-03-25T06:01:44.756Z,0.6
2023-03-25T06:02:53.197Z,0.6
2023-03-25T06:04:01.408Z,0.6
2023-03-25T06:05:09.902Z,1.2
2023-03-25T06:06:18.209Z,1.2
2023-03-25T06:07:26.518Z,1.2
2023-03-25T06:08:35.060Z,1.6
2023-03-25T06:09:43.377Z,1.6
2023-03-25T06:10:51.690Z,1.6
2023-03-25T06:12:00.214Z,1.3
2023-03-25T06:13:08.529Z,1.3
2023-03-25T06:14:16.845Z,1.3
2023-03-25T06:15:25.362Z,1.7
2023-03-25T06:16:33.663Z,1.7
2023-03-25T06:17:42.031Z,1.7
2023-03-25T06:18:50.506Z,1.5
2023-03-25T06:19:58.793Z,1.5
2023-03-25T06:21:07.109Z,1.5
2023-03-25T06:22:15.643Z,2.6
2023-03-25T06:23:23.979Z,2.6
2023-03-25T06:24:32.253Z,2.6
2023-03-25T06:25:40.756Z,1.4
2023-03-25T06:26:49.048Z,1.4
2023-03-25T06:27:57.353Z,1.4
2023-03-25T06:29:05.889Z,2.8
2023-03-25T06:30:14.195Z,2.8
2023-03-25T06:31:22.740Z,2.8
2023-03-25T06:32:31.022Z,1.9
2023-03-25T06:33:42.278Z,1.9
2023-03-25T06:34:47.641Z,1.9
2023-03-25T06:35:56.190Z,3.5
2023-03-25T06:37:04.444Z,3.5
2023-03-25T06:38:12.747Z,3.5
2023-03-25T06:39:21.265Z,4.7
2023-03-25T06:40:29.563Z,4.7
2023-03-25T06:41:37.877Z,4.7
2023-03-25T06:42:46.386Z,3.4
2023-03-25T06:43:54.726Z,3.4
2023-03-25T06:45:02.990Z,3.4
2023-03-25T06:46:11.517Z,2.5
2023-03-25T06:47:19.800Z,2.5
2023-03-25T06:48:28.107Z,2.5
2023-03-25T06:49:36.660Z,1.9
2023-03-25T06:50:44.923Z,1.9
2023-03-25T06:51:53.224Z,1.9
2023-03-25T06:53:01.739Z,3.9
2023-03-25T06:54:10.038Z,3.9
2023-03-25T06:55:18.342Z,3.9
2023-03-25T06:56:26.864Z,1.5
2023-03-25T06:57:35.185Z,1.5
2023-03-25T06:58:43.471Z,1.5
2023-03-25T06:59:51.985Z,2.3
2023-03-25T07:01:00.290Z,2.3
2023-03-25T07:02:08.659Z,2.3
2023-03-25T07:03:17.103Z,3.2
2023-03-25T07:04:25.421Z,3.2
2023-03-25T07:05:33.881Z,3.2
2023-03-25T07:06:42.217Z,3.1
2023-03-25T07:07:50.528Z,3.1
2023-03-25T07:08:58.831Z,3.1
2023-03-25T07:10:07.358Z,4.8
2023-03-25T07:11:15.647Z,4.8
2023-03-25T07:12:23.934Z,4.8
2023-03-25T07:13:32.457Z,7.1
2023-03-25T07:14:40.767Z,7.1
2023-03-25T07:15:49.234Z,7.1
2023-03-25T07:16:57.609Z,6.6
2023-03-25T07:18:05.923Z,6.6
2023-03-25T07:19:14.211Z,6.6
2023-03-25T07:20:22.738Z,7.7
2023-03-25T07:21:31.056Z,7.7
2023-03-25T07:22:39.324Z,7.7
2023-03-25T07:23:47.827Z,8.4
2023-03-25T07:24:56.159Z,8.4
2023-03-25T07:26:04.468Z,8.4
2023-03-25T07:27:12.981Z,3.5
2023-03-25T07:28:21.278Z,3.5
2023-03-25T07:29:29.595Z,3.5
2023-03-25T07:30:38.089Z,3.4
2023-03-25T07:31:46.453Z,3.4
2023-03-25T07:32:54.749Z,3.4
2023-03-25T07:34:03.252Z,5.4
2023-03-25T07:35:11.566Z,5.4
2023-03-25T07:36:19.870Z,5.4
2023-03-25T07:37:28.401Z,4.4
2023-03-25T07:38:36.675Z,4.4
2023-03-25T07:39:44.986Z,4.4
2023-03-25T07:40:53.479Z,3.6
2023-03-25T07:42:01.775Z,3.6
2023-03-25T07:43:10.085Z,3.6
2023-03-25T07:44:18.590Z,4.3
2023-03-25T07:45:26.947Z,4.3
2023-03-25T07:46:35.272Z,4.3
2023-03-25T07:47:43.777Z,1.4
2023-03-25T07:48:52.078Z,1.4
2023-03-25T07:50:00.405Z,1.4
2023-03-25T07:51:08.928Z,2.9
2023-03-25T07:52:17.268Z,2.9
2023-03-25T07:53:25.630Z,2.9
2023-03-25T07:54:34.140Z,2
2023-03-25T07:55:42.477Z,2
2023-03-25T07:56:50.827Z,2
2023-03-25T07:57:59.345Z,3.4
2023-03-25T07:59:07.662Z,3.4
2023-03-25T08:00:16.007Z,3.4
2023-03-25T08:01:24.523Z,4.9
2023-03-25T08:02:32.957Z,4.9
2023-03-25T08:03:41.260Z,4.9
2023-03-25T08:04:49.738Z,3
2023-03-25T08:05:58.086Z,3
2023-03-25T08:07:06.414Z,3
2023-03-25T08:08:14.975Z,3.1
2023-03-25T08:09:24.269Z,3.1
2023-03-25T08:10:32.558Z,3.1
2023-03-25T08:11:41.087Z,4.2
2023-03-25T08:12:49.421Z,4.2
2023-03-25T08:13:57.748Z,4.2
2023-03-25T08:15:06.282Z,3.2
2023-03-25T08:17:22.903Z,3.2
2023-03-25T08:18:31.456Z,4.4
2023-03-25T08:19:39.782Z,4.4
2023-03-25T08:20:48.146Z,4.4
2023-03-25T08:21:56.692Z,4
2023-03-25T08:23:05.001Z,4
2023-03-25T08:24:13.313Z,4
2023-03-25T08:25:21.869Z,5
2023-03-25T08:26:30.144Z,5
2023-03-25T08:27:38.453Z,5
2023-03-25T08:28:47.008Z,2.9
2023-03-25T08:29:55.330Z,2.9
2023-03-25T08:31:03.645Z,2.9
2023-03-25T08:32:12.195Z,1.8
2023-03-25T08:33:20.508Z,1.8
2023-03-25T08:34:29.271Z,1.8
2023-03-25T08:35:37.395Z,3
2023-03-25T08:36:45.713Z,3
2023-03-25T08:37:54.053Z,3
2023-03-25T08:39:02.593Z,2.8
2023-03-25T08:40:10.922Z,2.8
2023-03-25T08:41:19.264Z,2.8
2023-03-25T08:42:27.805Z,4
2023-03-25T08:43:36.136Z,4
2023-03-25T08:44:44.477Z,4
2023-03-25T08:45:53.208Z,2.5
2023-03-25T08:47:01.326Z,2.5
2023-03-25T08:48:09.629Z,2.5
2023-03-25T08:49:18.144Z,3.6
2023-03-25T08:50:26.500Z,3.6
2023-03-25T08:51:34.761Z,3.6
2023-03-25T08:52:43.274Z,2.1
2023-03-25T08:53:51.579Z,2.1
2023-03-25T08:54:59.919Z,2.1
2023-03-25T08:56:08.464Z,2.3
2023-03-25T08:57:16.813Z,2.3
2023-03-25T08:58:25.114Z,2.3
2023-03-25T08:59:33.676Z,6.4
2023-03-25T09:00:41.990Z,6.4
2023-03-25T09:01:50.323Z,6.4
2023-03-25T09:02:58.818Z,4.8
2023-03-25T09:04:07.136Z,4.8
2023-03-25T09:05:15.466Z,4.8
2023-03-25T09:06:23.954Z,3.9
2023-03-25T09:07:32.256Z,3.9
2023-03-25T09:08:40.561Z,3.9
2023-03-25T09:09:49.087Z,6.4
2023-03-25T09:10:57.391Z,6.4
2023-03-25T09:12:05.693Z,6.4
2023-03-25T09:13:14.244Z,6
2023-03-25T09:14:22.534Z,6
2023-03-25T09:15:30.830Z,6
2023-03-25T09:16:39.343Z,5.5
2023-03-25T09:17:47.661Z,5.5
2023-03-25T09:18:55.949Z,5.5
2023-03-25T09:20:04.461Z,7.3
2023-03-25T09:21:12.772Z,7.3
2023-03-25T09:22:21.075Z,7.3
2023-03-25T09:23:29.580Z,6
2023-03-25T09:24:37.887Z,6
2023-03-25T09:25:46.237Z,6
2023-03-25T09:26:54.693Z,5.3
2023-03-25T09:28:03.002Z,5.3
2023-03-25T09:29:11.316Z,5.3
2023-03-25T09:30:19.822Z,13.5
2023-03-25T09:31:28.137Z,13.5
2023-03-25T09:32:36.444Z,13.5
2023-03-25T09:33:44.917Z,2.6
2023-03-25T09:34:53.223Z,2.6
2023-03-25T09:36:01.524Z,2.6
2023-03-25T09:37:10.026Z,3.1
2023-03-25T09:38:18.327Z,3.1
2023-03-25T09:39:26.626Z,3.1
2023-03-25T09:40:35.133Z,3.3
2023-03-25T09:41:43.432Z,3.3
2023-03-25T09:42:51.724Z,3.3
2023-03-25T09:44:00.262Z,4.7
2023-03-25T09:45:12.130Z,4.7
2023-03-25T09:46:16.876Z,4.7
2023-03-25T09:47:25.423Z,3.3
2023-03-25T09:48:33.732Z,3.3
2023-03-25T09:49:42.037Z,3.3
2023-03-25T09:50:50.551Z,4.6
2023-03-25T09:51:58.866Z,4.6
2023-03-25T09:53:07.146Z,4.6
2023-03-25T09:54:15.656Z,2.3
2023-03-25T09:55:23.962Z,2.3
2023-03-25T09:56:32.303Z,2.3
2023-03-25T09:57:40.813Z,3.6
2023-03-25T09:58:49.120Z,3.6
2023-03-25T09:59:57.425Z,3.6
2023-03-25T10:01:05.976Z,4.2
2023-03-25T10:02:14.267Z,4.2
2023-03-25T10:03:22.571Z,4.2
2023-03-25T10:04:31.056Z,3.2
2023-03-25T10:05:39.363Z,3.2
2023-03-25T10:06:47.659Z,3.2
2023-03-25T10:07:56.184Z,2.4
2023-03-25T10:09:04.484Z,2.4
2023-03-25T10:10:12.798Z,2.4
2023-03-25T10:11:21.304Z,2.9
2023-03-25T10:12:29.611Z,2.9
2023-03-25T10:13:37.908Z,2.9
2023-03-25T10:14:46.433Z,4.9
2023-03-25T10:15:54.726Z,4.9
2023-03-25T10:17:03.040Z,4.9
2023-03-25T10:18:11.567Z,4.1
2023-03-25T10:19:19.831Z,4.1
2023-03-25T10:20:28.134Z,4.1
2023-03-25T10:21:36.667Z,3.7
2023-03-25T10:22:44.961Z,3.7
2023-03-25T10:23:53.262Z,3.7
2023-03-25T10:25:01.791Z,5.1
2023-03-25T10:26:10.088Z,5.1
2023-03-25T10:27:18.386Z,5.1
2023-03-25T10:28:26.898Z,4.4
2023-03-25T10:29:35.212Z,4.4
2023-03-25T10:30:43.506Z,4.4
2023-03-25T10:31:52.051Z,3.4
2023-03-25T10:33:00.389Z,3.4
2023-03-25T10:34:08.631Z,3.4
2023-03-25T10:35:17.182Z,5
2023-03-25T10:36:25.464Z,5
2023-03-25T10:37:33.760Z,5
2023-03-25T10:38:42.288Z,6.4
2023-03-25T10:39:50.602Z,6.4
2023-03-25T10:40:58.898Z,6.4
2023-03-25T10:42:07.415Z,3.3
2023-03-25T10:43:15.718Z,3.3
2023-03-25T10:44:24.027Z,3.3
2023-03-25T10:45:32.567Z,3.6
2023-03-25T10:46:40.833Z,3.6
2023-03-25T10:47:49.218Z,3.6
2023-03-25T10:48:57.671Z,4.5
2023-03-25T10:50:05.972Z,4.5
2023-03-25T10:51:14.277Z,4.5
2023-03-25T10:52:22.778Z,2.8
2023-03-25T10:53:31.086Z,2.8
2023-03-25T10:54:39.405Z,2.8
2023-03-25T10:55:47.955Z,4.8
2023-03-25T10:56:56.228Z,4.8
2023-03-25T10:58:04.517Z,4.8
2023-03-25T10:59:13.027Z,4.2
2023-03-25T11:00:21.481Z,4.2
2023-03-25T11:01:29.683Z,4.2
2023-03-25T11:02:38.185Z,4.9
2023-03-25T11:03:46.455Z,4.9
2023-03-25T11:04:54.784Z,4.9
2023-03-25T11:06:03.274Z,4.4
2023-03-25T11:07:11.569Z,4.4
2023-03-25T11:08:24.799Z,4.4
2023-03-25T11:09:28.383Z,5.7
2023-03-25T11:10:36.707Z,5.7
2023-03-25T11:11:45.016Z,5.7
2023-03-25T11:12:53.534Z,4.8
2023-03-25T11:14:01.826Z,4.8
2023-03-25T11:15:10.141Z,4.8
2023-03-25T11:16:18.673Z,4.3
2023-03-25T11:17:27.012Z,4.3
2023-03-25T11:18:35.309Z,4.3
2023-03-25T11:19:43.830Z,5.7
2023-03-25T11:20:52.154Z,5.7
2023-03-25T11:22:00.431Z,5.7
2023-03-25T11:23:08.948Z,5
2023-03-25T11:24:17.251Z,5
2023-03-25T11:25:25.571Z,5
2023-03-25T11:26:34.082Z,7
2023-03-25T11:27:42.378Z,7
2023-03-25T11:28:50.696Z,7
2023-03-25T11:29:59.223Z,4
2023-03-25T11:31:07.551Z,4
2023-03-25T11:32:15.839Z,4
2023-03-25T11:33:24.358Z,6.8
2023-03-25T11:34:32.728Z,6.8
2023-03-25T11:35:40.997Z,6.8
2023-03-25T11:36:49.523Z,6.1
2023-03-25T11:37:57.798Z,6.1
2023-03-25T11:39:06.110Z,6.1
2023-03-25T11:40:14.639Z,6.9
2023-03-25T11:41:22.938Z,6.9
2023-03-25T11:42:31.257Z,6.9
2023-03-25T11:43:39.761Z,5.6
2023-03-25T11:44:48.066Z,5.6
2023-03-25T11:45:56.430Z,5.6
2023-03-25T11:47:04.916Z,4.5
2023-03-25T11:48:13.217Z,4.5
2023-03-25T11:49:21.508Z,4.5
2023-03-25T11:50:30.046Z,9.2
2023-03-25T11:51:38.351Z,9.2
2023-03-25T11:52:46.706Z,9.2
2023-03-25T11:53:55.202Z,4.9
2023-03-25T11:55:03.505Z,4.9
2023-03-25T11:56:11.818Z,4.9
2023-03-25T11:57:20.338Z,6.6
2023-03-25T11:58:28.688Z,6.6
2023-03-25T11:59:36.950Z,6.6
2023-03-25T12:00:45.474Z,5.3
2023-03-25T12:01:53.772Z,5.3
2023-03-25T12:03:02.160Z,5.3
2023-03-25T12:04:10.595Z,8.7
2023-03-25T12:05:18.893Z,8.7
2023-03-25T12:06:27.276Z,8.7
2023-03-25T12:07:35.700Z,5.9
2023-03-25T12:08:44.044Z,5.9
2023-03-25T12:09:52.315Z,5.9
2023-03-25T12:11:00.839Z,4.7
2023-03-25T12:12:09.134Z,4.7
2023-03-25T12:13:17.440Z,4.7
2023-03-25T12:14:25.965Z,6.8
2023-03-25T12:15:34.269Z,6.8
2023-03-25T12:16:42.592Z,6.8
2023-03-25T12:17:51.125Z,5.1
2023-03-25T12:18:59.391Z,5.1
2023-03-25T12:20:07.706Z,5.1
2023-03-25T12:21:16.226Z,5.9
2023-03-25T12:22:24.527Z,5.9
2023-03-25T12:23:32.832Z,5.9
2023-03-25T12:24:41.382Z,2.5
2023-03-25T12:25:49.990Z,2.5
2023-03-25T12:26:57.955Z,2.5
2023-03-25T12:28:06.474Z,5.3
2023-03-25T12:29:14.789Z,5.3
2023-03-25T12:30:23.114Z,5.3
2023-03-25T12:31:31.664Z,2.8
2023-03-25T12:32:39.958Z,2.8
2023-03-25T12:33:48.313Z,2.8
2023-03-25T12:34:56.821Z,5.4
2023-03-25T12:36:05.119Z,5.4
2023-03-25T12:37:13.425Z,5.4
2023-03-25T12:38:21.925Z,1.3
2023-03-25T12:39:39.855Z,1.3
2023-03-25T12:40:38.631Z,1.3
2023-03-25T12:41:47.039Z,1.2
2023-03-25T12:42:55.354Z,1.2
2023-03-25T12:44:03.653Z,1.2
2023-03-25T12:45:12.175Z,1
2023-03-25T12:46:20.547Z,1
2023-03-25T12:47:28.788Z,1
2023-03-25T12:48:37.290Z,1
2023-03-25T12:49:45.594Z,1
2023-03-25T12:50:53.898Z,1
2023-03-25T12:52:02.423Z,0.2
2023-03-25T12:53:10.724Z,0.2
2023-03-25T12:54:19.021Z,0.2
2023-03-25T12:55:27.542Z,0.7
2023-03-25T12:56:35.880Z,0.7
2023-03-25T12:57:44.159Z,0.7
2023-03-25T12:58:52.677Z,0.5
2023-03-25T13:00:01.005Z,0.5
2023-03-25T13:01:09.329Z,0.5
2023-03-25T13:02:17.825Z,0.8
2023-03-25T13:03:26.139Z,0.8
2023-03-25T13:04:34.402Z,0.8
2023-03-25T13:05:42.910Z,0
2023-03-25T13:06:51.239Z,0
2023-03-25T13:07:59.539Z,0
2023-03-25T13:09:08.079Z,0.2
2023-03-25T13:10:16.446Z,0.2
2023-03-25T13:11:24.765Z,0.2
2023-03-25T13:12:33.328Z,0.7
2023-03-25T13:13:41.654Z,0.7
2023-03-25T13:14:50.030Z,0.7
2023-03-25T13:15:58.558Z,2
2023-03-25T13:17:06.876Z,2
2023-03-25T13:18:15.262Z,2
2023-03-25T13:19:23.775Z,41.900002
2023-03-25T13:20:32.168Z,41.900002
2023-03-25T13:21:40.509Z,41.900002
2023-03-25T13:22:49.003Z,5.1
2023-03-25T13:23:57.350Z,5.1
2023-03-25T13:25:05.678Z,5.1
2023-03-25T13:26:14.234Z,8.9
2023-03-25T13:27:22.562Z,8.9
2023-03-25T13:28:30.925Z,8.9
2023-03-25T13:29:39.484Z,10.2
2023-03-25T13:30:47.810Z,10.2
2023-03-25T13:31:56.190Z,10.2
2023-03-25T13:33:04.720Z,8.6
2023-03-25T13:34:13.030Z,8.6
2023-03-25T13:35:21.423Z,8.6
2023-03-25T13:36:29.930Z,5.5
2023-03-25T13:37:38.255Z,5.5
2023-03-25T13:38:46.564Z,5.5
2023-03-25T13:39:55.136Z,5.1
2023-03-25T13:41:03.463Z,5.1
2023-03-25T13:42:11.776Z,5.1
2023-03-25T13:43:20.334Z,4
2023-03-25T13:44:28.685Z,4
2023-03-25T13:45:37.043Z,4
2023-03-25T13:46:45.547Z,9.4
2023-03-25T13:47:53.956Z,9.4
2023-03-25T13:49:02.215Z,9.4
2023-03-25T13:50:10.801Z,2.4
2023-03-25T13:51:19.149Z,2.4
2023-03-25T13:52:27.485Z,2.4
2023-03-25T13:53:36.017Z,2
2023-03-25T13:54:44.355Z,2
2023-03-25T13:55:52.813Z,2
2023-03-25T13:57:01.230Z,3.6
2023-03-25T13:58:09.588Z,3.6
2023-03-25T13:59:19.423Z,3.6
2023-03-25T14:00:26.522Z,7
2023-03-25T14:01:34.871Z,7
2023-03-25T14:02:43.237Z,7
2023-03-25T14:03:51.710Z,3.1
2023-03-25T14:05:00.199Z,3.1
2023-03-25T14:06:08.451Z,3.1
2023-03-25T14:07:17.024Z,1.3
2023-03-25T14:08:25.318Z,1.3
2023-03-25T14:09:33.644Z,1.3
2023-03-25T14:10:42.204Z,2.8
2023-03-25T14:11:50.550Z,2.8
2023-03-25T14:12:58.881Z,2.8
2023-03-25T14:14:07.416Z,2.4
2023-03-25T14:15:15.770Z,2.4
2023-03-25T14:16:24.138Z,2.4
2023-03-25T14:17:32.678Z,2.1
2023-03-25T14:18:40.972Z,2.1
2023-03-25T14:19:49.354Z,2.1
2023-03-25T14:20:59.106Z,4.8
2023-03-25T14:22:06.274Z,4.8
2023-03-25T14:23:14.524Z,4.8
2023-03-25T14:24:23.132Z,2.3
2023-03-25T14:25:31.465Z,2.3
2023-03-25T14:26:39.830Z,2.3
2023-03-25T14:27:48.375Z,3
2023-03-25T14:28:57.903Z,3
2023-03-25T14:30:05.069Z,3
2023-03-25T14:31:13.620Z,2.5
2023-03-25T14:32:22.019Z,2.5
2023-03-25T14:33:30.275Z,2.5
2023-03-25T14:34:40.559Z,4
2023-03-25T14:35:47.322Z,4
2023-03-25T14:36:55.556Z,4
2023-03-25T14:38:04.096Z,4.3
2023-03-25T14:39:12.460Z,4.3
2023-03-25T14:40:20.803Z,4.3
2023-03-25T14:41:29.378Z,2.5
2023-03-25T14:42:37.718Z,2.5
2023-03-25T14:43:46.130Z,2.5
2023-03-25T14:44:54.843Z,2.2
2023-03-25T14:46:03.063Z,2.2
2023-03-25T14:47:11.402Z,2.2
2023-03-25T14:48:25.425Z,2.7
2023-03-25T14:49:28.341Z,2.7
2023-03-25T14:50:36.730Z,2.7
2023-03-25T14:51:45.260Z,36.799999
2023-03-25T14:52:53.581Z,36.799999
2023-03-25T14:54:01.897Z,36.799999
2023-03-25T14:55:10.451Z,6.9
2023-03-25T14:56:18.759Z,6.9
2023-03-25T14:57:27.090Z,6.9
2023-03-25T14:58:35.649Z,5
2023-03-25T14:59:44.006Z,5
2023-03-25T15:00:52.470Z,5
2023-03-25T15:02:00.932Z,9.1
2023-03-25T15:03:09.199Z,9.1
2023-03-25T15:04:17.571Z,9.1
2023-03-25T15:05:26.108Z,15.1
2023-03-25T15:38:54.527Z,0
2023-03-25T15:40:02.840Z,0
2023-03-25T15:41:12.699Z,0
2023-03-25T15:42:19.700Z,2.5
2023-03-25T15:43:28.047Z,2.5
2023-03-25T15:44:36.378Z,2.5
2023-03-25T15:45:44.949Z,4.4
2023-03-25T15:46:53.259Z,4.4
2023-03-25T15:48:01.627Z,4.4
2023-03-25T15:49:10.130Z,4.6
2023-03-25T15:50:18.474Z,4.6
2023-03-25T15:51:26.811Z,4.6
2023-03-25T15:52:35.348Z,5.5
2023-03-25T15:53:43.757Z,5.5
2023-03-25T15:54:52.051Z,5.5
2023-03-25T15:56:00.572Z,4.1
2023-03-25T15:57:08.948Z,4.1
2023-03-25T15:58:17.218Z,4.1
2023-03-25T15:59:25.764Z,5.1
2023-03-25T16:00:34.098Z,5.1
2023-03-25T16:01:42.416Z,5.1
2023-03-25T16:02:51.023Z,10.2
2023-03-25T16:03:59.996Z,10.2
2023-03-25T16:05:08.372Z,10.2
2023-03-25T16:06:16.943Z,13
2023-03-25T16:07:25.298Z,13
2023-03-25T16:08:33.633Z,13
2023-03-25T16:09:42.206Z,6.5
2023-03-25T16:10:50.710Z,6.5
2023-03-25T16:11:58.893Z,6.5
2023-03-25T16:13:07.439Z,6.4
2023-03-25T16:14:15.772Z,6.4
2023-03-25T16:15:24.119Z,6.4
2023-03-25T16:16:32.677Z,5.3
2023-03-25T16:17:41.063Z,5.3
2023-03-25T16:18:49.371Z,5.3
2023-03-25T16:19:57.952Z,7.7
2023-03-25T16:21:06.324Z,7.7